Anaktuvuk Pass, Alaska
Current Conditions -  °F | °C
As of 5:16 AM on Monday 20 Oct 2014 (Local Time) from PAKP Reporting Station
Scattered Clouds Scattered Clouds  
Wind Chill: -2°   Ceiling: Unl
Heat Index:   Visibility: 10mi
Dew Point:   Wind: 5mph
Humidity: 72%   Direction: 350°N
Pressure: 29.35"   Gusts: NA
Location:  68.14°N, 151.74°W
Report Text: PAKP 201316Z AUTO 35004KT 10SM SCT085 M14/M18 A2935 RMK AO1
Loading
Personal Weather Stations






























Interactive Weather Map New forecast layout! Learn more

10-Day Weather Forecast

Advertisements
Track Severe Weather on mobile